sensor_id;sensor_type;location;lat;lon;timestamp;temperature;humidity
13982;DHT22;7065;50.880;5.502;2022-08-11T00:01:25;20.40;99.90
13982;DHT22;7065;50.880;5.502;2022-08-11T00:03:55;20.40;99.90
13982;DHT22;7065;50.880;5.502;2022-08-11T00:06:28;20.40;99.90
13982;DHT22;7065;50.880;5.502;2022-08-11T00:08:54;20.30;99.90
13982;DHT22;7065;50.880;5.502;2022-08-11T00:11:21;20.30;99.90
13982;DHT22;7065;50.880;5.502;2022-08-11T00:13:56;20.30;99.90
13982;DHT22;7065;50.880;5.502;2022-08-11T00:16:23;20.20;99.90
13982;DHT22;7065;50.880;5.502;2022-08-11T00:18:54;20.20;99.90
13982;DHT22;7065;50.880;5.502;2022-08-11T00:21:21;20.10;99.90
13982;DHT22;7065;50.880;5.502;2022-08-11T00:23:58;20.00;99.90
13982;DHT22;7065;50.880;5.502;2022-08-11T00:26:26;20.00;99.90
13982;DHT22;7065;50.880;5.502;2022-08-11T00:28:53;20.00;99.90
13982;DHT22;7065;50.880;5.502;2022-08-11T00:31:33;20.00;99.90
13982;DHT22;7065;50.880;5.502;2022-08-11T00:34:00;19.90;99.90
13982;DHT22;7065;50.880;5.502;2022-08-11T00:37:38;19.90;99.90
13982;DHT22;7065;50.880;5.502;2022-08-11T00:39:34;19.90;99.90
13982;DHT22;7065;50.880;5.502;2022-08-11T00:42:28;19.90;99.90
13982;DHT22;7065;50.880;5.502;2022-08-11T00:45:18;19.90;99.90
13982;DHT22;7065;50.880;5.502;2022-08-11T00:47:55;19.80;99.90
13982;DHT22;7065;50.880;5.502;2022-08-11T00:53:29;19.80;99.90
13982;DHT22;7065;50.880;5.502;2022-08-11T01:01:58;19.40;99.90
13982;DHT22;7065;50.880;5.502;2022-08-11T01:10:40;19.10;99.90
13982;DHT22;7065;50.880;5.502;2022-08-11T01:16:05;19.10;99.90
13982;DHT22;7065;50.880;5.502;2022-08-11T01:22:17;19.00;99.90
13982;DHT22;7065;50.880;5.502;2022-08-11T01:27:24;18.80;99.90
13982;DHT22;7065;50.880;5.502;2022-08-11T01:32:49;18.70;99.90
13982;DHT22;7065;50.880;5.502;2022-08-11T01:47:24;18.30;99.90
13982;DHT22;7065;50.880;5.502;2022-08-11T01:53:10;18.10;99.90
13982;DHT22;7065;50.880;5.502;2022-08-11T02:04:32;18.00;99.90
13982;DHT22;7065;50.880;5.502;2022-08-11T02:07:32;17.90;99.90
13982;DHT22;7065;50.880;5.502;2022-08-11T02:13:14;17.70;99.90
13982;DHT22;7065;50.880;5.502;2022-08-11T02:15:55;17.60;99.90
13982;DHT22;7065;50.880;5.502;2022-08-11T02:18:34;17.50;99.90
13982;DHT22;7065;50.880;5.502;2022-08-11T02:21:27;17.40;99.90
13982;DHT22;7065;50.880;5.502;2022-08-11T02:24:25;17.30;99.90
13982;DHT22;7065;50.880;5.502;2022-08-11T02:27:06;17.20;99.90
13982;DHT22;7065;50.880;5.502;2022-08-11T02:35:15;17.00;99.90
13982;DHT22;7065;50.880;5.502;2022-08-11T02:43:51;16.90;99.90
13982;DHT22;7065;50.880;5.502;2022-08-11T02:46:40;16.80;99.90
13982;DHT22;7065;50.880;5.502;2022-08-11T02:49:24;16.70;99.90
13982;DHT22;7065;50.880;5.502;2022-08-11T02:55:37;16.60;99.90
13982;DHT22;7065;50.880;5.502;2022-08-11T02:58:12;16.50;99.90
13982;DHT22;7065;50.880;5.502;2022-08-11T03:01:05;16.50;99.90
13982;DHT22;7065;50.880;5.502;2022-08-11T03:06:34;16.40;99.90
13982;DHT22;7065;50.880;5.502;2022-08-11T03:09:09;16.40;99.90
13982;DHT22;7065;50.880;5.502;2022-08-11T03:12:12;16.40;99.90
13982;DHT22;7065;50.880;5.502;2022-08-11T03:15:19;16.40;99.90
13982;DHT22;7065;50.880;5.502;2022-08-11T03:18:14;16.40;99.90
13982;DHT22;7065;50.880;5.502;2022-08-11T03:20:53;16.30;99.90
13982;DHT22;7065;50.880;5.502;2022-08-11T03:23:40;16.30;99.90
13982;DHT22;7065;50.880;5.502;2022-08-11T03:32:00;16.30;99.90
13982;DHT22;7065;50.880;5.502;2022-08-11T03:34:29;16.30;99.90
13982;DHT22;7065;50.880;5.502;2022-08-11T03:37:16;16.30;99.90
13982;DHT22;7065;50.880;5.502;2022-08-11T03:45:59;16.20;99.90
13982;DHT22;7065;50.880;5.502;2022-08-11T03:49:04;16.20;99.90
13982;DHT22;7065;50.880;5.502;2022-08-11T03:51:44;16.20;99.90
13982;DHT22;7065;50.880;5.502;2022-08-11T03:54:24;16.10;99.90
13982;DHT22;7065;50.880;5.502;2022-08-11T04:00:43;16.10;99.90
13982;DHT22;7065;50.880;5.502;2022-08-11T04:03:16;16.00;99.90
13982;DHT22;7065;50.880;5.502;2022-08-11T04:09:12;16.00;99.90
13982;DHT22;7065;50.880;5.502;2022-08-11T04:15:03;16.00;99.90
13982;DHT22;7065;50.880;5.502;2022-08-11T04:32:45;16.20;99.90
13982;DHT22;7065;50.880;5.502;2022-08-11T04:50:00;16.30;99.90
13982;DHT22;7065;50.880;5.502;2022-08-11T04:58:51;16.30;99.90
13982;DHT22;7065;50.880;5.502;2022-08-11T05:13:46;16.70;99.90
13982;DHT22;7065;50.880;5.502;2022-08-11T05:16:40;16.60;99.90
13982;DHT22;7065;50.880;5.502;2022-08-11T05:19:26;16.60;99.90
13982;DHT22;7065;50.880;5.502;2022-08-11T05:22:11;16.50;99.90
13982;DHT22;7065;50.880;5.502;2022-08-11T05:25:35;16.50;99.90
13982;DHT22;7065;50.880;5.502;2022-08-11T05:29:22;16.60;99.90
13982;DHT22;7065;50.880;5.502;2022-08-11T05:31:35;16.60;99.90
13982;DHT22;7065;50.880;5.502;2022-08-11T05:34:47;16.70;99.90
13982;DHT22;7065;50.880;5.502;2022-08-11T05:39:52;16.80;99.90
13982;DHT22;7065;50.880;5.502;2022-08-11T05:42:42;16.90;99.90
13982;DHT22;7065;50.880;5.502;2022-08-11T05:45:33;17.10;99.90
13982;DHT22;7065;50.880;5.502;2022-08-11T05:48:18;17.20;99.90
13982;DHT22;7065;50.880;5.502;2022-08-11T05:51:03;17.20;99.90
13982;DHT22;7065;50.880;5.502;2022-08-11T05:53:58;17.30;99.90
13982;DHT22;7065;50.880;5.502;2022-08-11T05:56:51;17.40;99.90
13982;DHT22;7065;50.880;5.502;2022-08-11T05:59:23;17.50;99.90
13982;DHT22;7065;50.880;5.502;2022-08-11T06:01:49;17.60;99.90
13982;DHT22;7065;50.880;5.502;2022-08-11T06:04:23;17.80;99.90
13982;DHT22;7065;50.880;5.502;2022-08-11T06:07:00;17.80;99.90
13982;DHT22;7065;50.880;5.502;2022-08-11T06:09:35;17.90;99.90
13982;DHT22;7065;50.880;5.502;2022-08-11T06:12:08;17.90;99.90
13982;DHT22;7065;50.880;5.502;2022-08-11T06:14:41;18.00;99.90
13982;DHT22;7065;50.880;5.502;2022-08-11T06:17:07;18.10;99.90
13982;DHT22;7065;50.880;5.502;2022-08-11T06:19:46;18.20;99.90
13982;DHT22;7065;50.880;5.502;2022-08-11T06:22:18;18.30;99.90
13982;DHT22;7065;50.880;5.502;2022-08-11T06:24:52;18.50;99.90
13982;DHT22;7065;50.880;5.502;2022-08-11T06:27:20;18.60;99.90
13982;DHT22;7065;50.880;5.502;2022-08-11T06:29:50;18.70;99.90
13982;DHT22;7065;50.880;5.502;2022-08-11T06:32:17;18.80;99.90
13982;DHT22;7065;50.880;5.502;2022-08-11T06:37:29;19.10;99.90
13982;DHT22;7065;50.880;5.502;2022-08-11T06:45:26;19.20;99.90
13982;DHT22;7065;50.880;5.502;2022-08-11T06:47:53;19.30;99.90
13982;DHT22;7065;50.880;5.502;2022-08-11T06:50:21;19.30;99.90
13982;DHT22;7065;50.880;5.502;2022-08-11T06:53:07;19.50;99.90
13982;DHT22;7065;50.880;5.502;2022-08-11T06:55:35;19.60;99.90
13982;DHT22;7065;50.880;5.502;2022-08-11T06:58:27;19.80;99.90
13982;DHT22;7065;50.880;5.502;2022-08-11T07:01:14;19.90;99.90
13982;DHT22;7065;50.880;5.502;2022-08-11T07:03:47;20.00;99.90
13982;DHT22;7065;50.880;5.502;2022-08-11T07:09:06;20.10;99.90
13982;DHT22;7065;50.880;5.502;2022-08-11T07:12:23;20.10;99.90
13982;DHT22;7065;50.880;5.502;2022-08-11T07:15:13;20.20;99.90
13982;DHT22;7065;50.880;5.502;2022-08-11T07:18:01;20.30;99.90
13982;DHT22;7065;50.880;5.502;2022-08-11T07:20:46;20.40;99.90
13982;DHT22;7065;50.880;5.502;2022-08-11T07:23:33;20.30;99.90
13982;DHT22;7065;50.880;5.502;2022-08-11T07:26:20;20.30;99.90
13982;DHT22;7065;50.880;5.502;2022-08-11T07:29:06;20.40;99.90
13982;DHT22;7065;50.880;5.502;2022-08-11T07:31:47;20.40;99.90
13982;DHT22;7065;50.880;5.502;2022-08-11T07:36:53;20.60;99.90
13982;DHT22;7065;50.880;5.502;2022-08-11T07:39:28;20.60;99.90
13982;DHT22;7065;50.880;5.502;2022-08-11T07:41:57;20.60;99.90
13982;DHT22;7065;50.880;5.502;2022-08-11T07:44:27;20.80;99.90
13982;DHT22;7065;50.880;5.502;2022-08-11T07:46:56;21.00;99.90
13982;DHT22;7065;50.880;5.502;2022-08-11T07:49:44;21.00;99.90
13982;DHT22;7065;50.880;5.502;2022-08-11T07:52:32;21.10;99.90
13982;DHT22;7065;50.880;5.502;2022-08-11T07:55:22;21.10;99.90
13982;DHT22;7065;50.880;5.502;2022-08-11T07:57:49;21.20;99.90
13982;DHT22;7065;50.880;5.502;2022-08-11T08:00:41;21.20;99.90
13982;DHT22;7065;50.880;5.502;2022-08-11T08:03:28;21.20;99.90
13982;DHT22;7065;50.880;5.502;2022-08-11T08:06:14;21.30;99.90
13982;DHT22;7065;50.880;5.502;2022-08-11T08:09:00;21.40;99.90
13982;DHT22;7065;50.880;5.502;2022-08-11T08:11:45;21.50;99.90
13982;DHT22;7065;50.880;5.502;2022-08-11T08:14:30;21.60;99.90
13982;DHT22;7065;50.880;5.502;2022-08-11T08:17:15;21.90;99.90
13982;DHT22;7065;50.880;5.502;2022-08-11T08:19:59;22.10;99.90
13982;DHT22;7065;50.880;5.502;2022-08-11T08:22:25;22.20;99.90
13982;DHT22;7065;50.880;5.502;2022-08-11T08:24:52;22.40;99.90
13982;DHT22;7065;50.880;5.502;2022-08-11T08:27:19;22.60;99.90
13982;DHT22;7065;50.880;5.502;2022-08-11T08:29:46;22.70;99.90
13982;DHT22;7065;50.880;5.502;2022-08-11T08:32:31;22.70;99.90
13982;DHT22;7065;50.880;5.502;2022-08-11T08:35:00;22.80;99.90
13982;DHT22;7065;50.880;5.502;2022-08-11T08:37:27;22.70;99.90
13982;DHT22;7065;50.880;5.502;2022-08-11T08:39:53;22.70;99.90
13982;DHT22;7065;50.880;5.502;2022-08-11T08:42:24;22.70;99.90
13982;DHT22;7065;50.880;5.502;2022-08-11T08:44:58;22.90;99.90
13982;DHT22;7065;50.880;5.502;2022-08-11T08:47:27;22.90;99.90
13982;DHT22;7065;50.880;5.502;2022-08-11T08:49:59;23.10;99.90
13982;DHT22;7065;50.880;5.502;2022-08-11T08:52:29;23.10;99.90
13982;DHT22;7065;50.880;5.502;2022-08-11T08:54:57;23.20;99.90
13982;DHT22;7065;50.880;5.502;2022-08-11T08:57:27;23.20;99.90
13982;DHT22;7065;50.880;5.502;2022-08-11T08:59:54;23.50;99.90
13982;DHT22;7065;50.880;5.502;2022-08-11T09:02:24;23.60;99.90
13982;DHT22;7065;50.880;5.502;2022-08-11T09:04:50;23.70;99.90
13982;DHT22;7065;50.880;5.502;2022-08-11T09:07:19;23.90;99.90
13982;DHT22;7065;50.880;5.502;2022-08-11T09:09:49;24.20;99.90
13982;DHT22;7065;50.880;5.502;2022-08-11T09:12:18;24.20;99.90
13982;DHT22;7065;50.880;5.502;2022-08-11T09:14:46;24.30;99.90
13982;DHT22;7065;50.880;5.502;2022-08-11T09:17:26;24.40;99.90
13982;DHT22;7065;50.880;5.502;2022-08-11T09:19:55;24.40;99.90
13982;DHT22;7065;50.880;5.502;2022-08-11T09:22:26;24.40;99.90
13982;DHT22;7065;50.880;5.502;2022-08-11T09:25:11;24.50;99.90
13982;DHT22;7065;50.880;5.502;2022-08-11T09:27:56;24.60;99.90
13982;DHT22;7065;50.880;5.502;2022-08-11T09:30:24;24.80;99.90
13982;DHT22;7065;50.880;5.502;2022-08-11T09:33:00;24.90;99.90
13982;DHT22;7065;50.880;5.502;2022-08-11T09:35:27;25.00;99.90
13982;DHT22;7065;50.880;5.502;2022-08-11T09:37:54;25.00;99.90
13982;DHT22;7065;50.880;5.502;2022-08-11T09:40:45;25.00;99.90
13982;DHT22;7065;50.880;5.502;2022-08-11T09:43:12;25.20;99.90
13982;DHT22;7065;50.880;5.502;2022-08-11T09:45:59;25.20;99.90
13982;DHT22;7065;50.880;5.502;2022-08-11T09:48:28;25.20;99.90
13982;DHT22;7065;50.880;5.502;2022-08-11T09:50:56;25.40;99.90
13982;DHT22;7065;50.880;5.502;2022-08-11T09:53:24;25.60;99.90
13982;DHT22;7065;50.880;5.502;2022-08-11T09:55:51;26.00;99.90
13982;DHT22;7065;50.880;5.502;2022-08-11T09:58:18;26.30;98.90
13982;DHT22;7065;50.880;5.502;2022-08-11T10:00:47;26.30;98.60
13982;DHT22;7065;50.880;5.502;2022-08-11T10:03:16;26.30;99.60
13982;DHT22;7065;50.880;5.502;2022-08-11T10:06:00;26.30;99.10
13982;DHT22;7065;50.880;5.502;2022-08-11T10:08:46;26.30;98.80
13982;DHT22;7065;50.880;5.502;2022-08-11T10:11:14;26.70;97.80
13982;DHT22;7065;50.880;5.502;2022-08-11T10:13:44;26.80;97.10
13982;DHT22;7065;50.880;5.502;2022-08-11T10:16:31;26.70;97.10
13982;DHT22;7065;50.880;5.502;2022-08-11T10:19:01;26.70;97.60
13982;DHT22;7065;50.880;5.502;2022-08-11T10:23:57;26.70;97.20
13982;DHT22;7065;50.880;5.502;2022-08-11T10:26:44;26.60;98.10
13982;DHT22;7065;50.880;5.502;2022-08-11T10:29:32;26.90;96.90
13982;DHT22;7065;50.880;5.502;2022-08-11T10:32:25;26.90;95.60
13982;DHT22;7065;50.880;5.502;2022-08-11T10:35:09;26.90;95.50
13982;DHT22;7065;50.880;5.502;2022-08-11T10:37:38;26.90;96.00
13982;DHT22;7065;50.880;5.502;2022-08-11T10:40:06;27.00;95.90
13982;DHT22;7065;50.880;5.502;2022-08-11T10:42:33;27.00;96.20
13982;DHT22;7065;50.880;5.502;2022-08-11T10:45:18;26.90;97.20
13982;DHT22;7065;50.880;5.502;2022-08-11T10:48:05;27.10;95.90
13982;DHT22;7065;50.880;5.502;2022-08-11T10:50:32;27.40;95.50
13982;DHT22;7065;50.880;5.502;2022-08-11T10:53:17;27.40;95.40
13982;DHT22;7065;50.880;5.502;2022-08-11T10:56:03;27.60;94.00
13982;DHT22;7065;50.880;5.502;2022-08-11T10:58:47;27.70;95.00
13982;DHT22;7065;50.880;5.502;2022-08-11T11:03:54;28.00;93.60
13982;DHT22;7065;50.880;5.502;2022-08-11T11:09:27;28.50;91.30
13982;DHT22;7065;50.880;5.502;2022-08-11T11:12:10;28.50;91.60
13982;DHT22;7065;50.880;5.502;2022-08-11T11:14:56;28.60;90.80
13982;DHT22;7065;50.880;5.502;2022-08-11T11:17:51;28.60;92.30
13982;DHT22;7065;50.880;5.502;2022-08-11T11:20:41;28.60;92.30
13982;DHT22;7065;50.880;5.502;2022-08-11T11:26:18;28.70;92.00
13982;DHT22;7065;50.880;5.502;2022-08-11T11:37:22;28.50;91.90
13982;DHT22;7065;50.880;5.502;2022-08-11T11:39:48;28.90;90.60
13982;DHT22;7065;50.880;5.502;2022-08-11T11:42:16;29.00;88.50
13982;DHT22;7065;50.880;5.502;2022-08-11T11:44:43;29.00;88.60
13982;DHT22;7065;50.880;5.502;2022-08-11T11:47:13;29.00;92.20
13982;DHT22;7065;50.880;5.502;2022-08-11T11:49:42;28.90;88.10
13982;DHT22;7065;50.880;5.502;2022-08-11T11:52:14;29.00;87.20
13982;DHT22;7065;50.880;5.502;2022-08-11T11:54:42;29.20;90.20
13982;DHT22;7065;50.880;5.502;2022-08-11T11:57:08;29.30;86.70
13982;DHT22;7065;50.880;5.502;2022-08-11T11:59:54;29.70;83.70
13982;DHT22;7065;50.880;5.502;2022-08-11T12:02:40;29.70;83.20
13982;DHT22;7065;50.880;5.502;2022-08-11T12:05:08;29.90;79.40
13982;DHT22;7065;50.880;5.502;2022-08-11T12:07:35;29.80;87.00
13982;DHT22;7065;50.880;5.502;2022-08-11T12:10:21;29.90;80.50
13982;DHT22;7065;50.880;5.502;2022-08-11T12:12:47;30.10;80.60
13982;DHT22;7065;50.880;5.502;2022-08-11T12:15:31;30.00;83.30
13982;DHT22;7065;50.880;5.502;2022-08-11T12:17:59;29.90;82.00
13982;DHT22;7065;50.880;5.502;2022-08-11T12:20:25;29.90;82.60
13982;DHT22;7065;50.880;5.502;2022-08-11T12:22:51;29.90;81.40
13982;DHT22;7065;50.880;5.502;2022-08-11T12:25:36;30.10;78.80
13982;DHT22;7065;50.880;5.502;2022-08-11T12:28:21;30.00;81.40
13982;DHT22;7065;50.880;5.502;2022-08-11T12:30:49;30.10;81.00
13982;DHT22;7065;50.880;5.502;2022-08-11T12:33:16;30.20;78.50
13982;DHT22;7065;50.880;5.502;2022-08-11T12:35:43;30.40;74.60
13982;DHT22;7065;50.880;5.502;2022-08-11T12:38:09;30.50;76.00
13982;DHT22;7065;50.880;5.502;2022-08-11T12:40:36;30.60;78.90
13982;DHT22;7065;50.880;5.502;2022-08-11T12:43:23;30.50;74.60
13982;DHT22;7065;50.880;5.502;2022-08-11T12:46:22;30.60;74.10
13982;DHT22;7065;50.880;5.502;2022-08-11T12:48:55;30.60;75.70
13982;DHT22;7065;50.880;5.502;2022-08-11T12:51:44;30.60;76.40
13982;DHT22;7065;50.880;5.502;2022-08-11T12:57:06;30.80;72.00
13982;DHT22;7065;50.880;5.502;2022-08-11T12:59:53;30.80;73.80
13982;DHT22;7065;50.880;5.502;2022-08-11T13:02:39;30.90;70.70
13982;DHT22;7065;50.880;5.502;2022-08-11T13:05:24;30.80;74.50
13982;DHT22;7065;50.880;5.502;2022-08-11T13:07:50;30.70;73.30
13982;DHT22;7065;50.880;5.502;2022-08-11T13:10:17;30.80;74.00
13982;DHT22;7065;50.880;5.502;2022-08-11T13:13:04;30.90;72.00
13982;DHT22;7065;50.880;5.502;2022-08-11T13:15:30;31.00;69.80
13982;DHT22;7065;50.880;5.502;2022-08-11T13:17:58;30.90;69.80
13982;DHT22;7065;50.880;5.502;2022-08-11T13:20:24;30.90;68.20
13982;DHT22;7065;50.880;5.502;2022-08-11T13:22:52;31.00;71.70
13982;DHT22;7065;50.880;5.502;2022-08-11T13:25:21;30.90;73.00
13982;DHT22;7065;50.880;5.502;2022-08-11T13:27:49;31.00;67.80
13982;DHT22;7065;50.880;5.502;2022-08-11T13:30:16;31.10;69.60
13982;DHT22;7065;50.880;5.502;2022-08-11T13:33:02;31.10;70.30
13982;DHT22;7065;50.880;5.502;2022-08-11T13:35:29;31.20;69.30
13982;DHT22;7065;50.880;5.502;2022-08-11T13:37:56;31.20;68.00
13982;DHT22;7065;50.880;5.502;2022-08-11T13:40:23;31.20;64.80
13982;DHT22;7065;50.880;5.502;2022-08-11T13:42:50;31.10;66.70
13982;DHT22;7065;50.880;5.502;2022-08-11T13:45:17;31.20;71.50
13982;DHT22;7065;50.880;5.502;2022-08-11T13:47:44;31.30;66.20
13982;DHT22;7065;50.880;5.502;2022-08-11T13:50:11;31.40;66.80
13982;DHT22;7065;50.880;5.502;2022-08-11T13:52:40;31.50;67.70
13982;DHT22;7065;50.880;5.502;2022-08-11T13:55:09;31.50;65.40
13982;DHT22;7065;50.880;5.502;2022-08-11T13:57:35;31.50;66.80
13982;DHT22;7065;50.880;5.502;2022-08-11T14:00:05;31.60;66.60
13982;DHT22;7065;50.880;5.502;2022-08-11T14:02:44;31.60;65.50
13982;DHT22;7065;50.880;5.502;2022-08-11T14:05:15;31.70;66.00
13982;DHT22;7065;50.880;5.502;2022-08-11T14:07:51;31.70;63.80
13982;DHT22;7065;50.880;5.502;2022-08-11T14:10:25;31.70;67.80
13982;DHT22;7065;50.880;5.502;2022-08-11T14:12:58;31.70;63.80
13982;DHT22;7065;50.880;5.502;2022-08-11T14:15:44;31.70;64.80
13982;DHT22;7065;50.880;5.502;2022-08-11T14:18:21;31.80;65.10
13982;DHT22;7065;50.880;5.502;2022-08-11T14:20:54;31.80;63.90
13982;DHT22;7065;50.880;5.502;2022-08-11T14:23:41;31.70;63.40
13982;DHT22;7065;50.880;5.502;2022-08-11T14:26:11;31.70;65.40
13982;DHT22;7065;50.880;5.502;2022-08-11T14:28:49;31.70;66.70
13982;DHT22;7065;50.880;5.502;2022-08-11T14:31:18;31.80;67.60
13982;DHT22;7065;50.880;5.502;2022-08-11T14:33:44;32.00;66.20
13982;DHT22;7065;50.880;5.502;2022-08-11T14:36:12;32.10;67.20
13982;DHT22;7065;50.880;5.502;2022-08-11T14:38:39;32.00;62.60
13982;DHT22;7065;50.880;5.502;2022-08-11T14:41:06;32.00;63.80
13982;DHT22;7065;50.880;5.502;2022-08-11T14:43:53;32.00;62.60
13982;DHT22;7065;50.880;5.502;2022-08-11T14:46:38;32.00;65.90
13982;DHT22;7065;50.880;5.502;2022-08-11T14:49:23;32.10;65.30
13982;DHT22;7065;50.880;5.502;2022-08-11T14:51:50;32.40;63.70
13982;DHT22;7065;50.880;5.502;2022-08-11T14:54:22;32.40;62.10
13982;DHT22;7065;50.880;5.502;2022-08-11T14:57:09;32.40;61.10
13982;DHT22;7065;50.880;5.502;2022-08-11T14:59:36;32.20;61.60
13982;DHT22;7065;50.880;5.502;2022-08-11T15:02:03;32.50;62.30
13982;DHT22;7065;50.880;5.502;2022-08-11T15:04:49;32.40;59.20
13982;DHT22;7065;50.880;5.502;2022-08-11T15:07:15;32.30;61.40
13982;DHT22;7065;50.880;5.502;2022-08-11T15:09:42;32.40;59.50
13982;DHT22;7065;50.880;5.502;2022-08-11T15:12:09;32.30;60.40
13982;DHT22;7065;50.880;5.502;2022-08-11T15:14:46;32.50;60.50
13982;DHT22;7065;50.880;5.502;2022-08-11T15:17:33;32.20;59.60
13982;DHT22;7065;50.880;5.502;2022-08-11T15:20:06;32.20;62.30
13982;DHT22;7065;50.880;5.502;2022-08-11T15:22:50;32.50;61.00
13982;DHT22;7065;50.880;5.502;2022-08-11T15:25:35;32.60;59.50
13982;DHT22;7065;50.880;5.502;2022-08-11T15:28:03;32.70;61.10
13982;DHT22;7065;50.880;5.502;2022-08-11T15:30:53;32.70;60.40
13982;DHT22;7065;50.880;5.502;2022-08-11T15:33:39;32.50;59.60
13982;DHT22;7065;50.880;5.502;2022-08-11T15:36:25;32.30;61.20
13982;DHT22;7065;50.880;5.502;2022-08-11T15:39:18;32.20;59.50
13982;DHT22;7065;50.880;5.502;2022-08-11T15:41:50;32.30;59.80
13982;DHT22;7065;50.880;5.502;2022-08-11T15:44:40;32.20;59.60
13982;DHT22;7065;50.880;5.502;2022-08-11T15:47:28;32.30;60.60
13982;DHT22;7065;50.880;5.502;2022-08-11T15:49:59;32.50;60.70
13982;DHT22;7065;50.880;5.502;2022-08-11T15:52:31;32.40;60.00
13982;DHT22;7065;50.880;5.502;2022-08-11T15:54:58;32.50;60.00
13982;DHT22;7065;50.880;5.502;2022-08-11T15:57:27;32.60;60.50
13982;DHT22;7065;50.880;5.502;2022-08-11T16:00:13;33.40;59.00
13982;DHT22;7065;50.880;5.502;2022-08-11T16:02:59;33.90;59.20
13982;DHT22;7065;50.880;5.502;2022-08-11T16:05:44;35.40;58.30
13982;DHT22;7065;50.880;5.502;2022-08-11T16:08:14;36.90;55.50
13982;DHT22;7065;50.880;5.502;2022-08-11T16:10:41;37.60;55.40
13982;DHT22;7065;50.880;5.502;2022-08-11T16:13:09;38.00;53.60
13982;DHT22;7065;50.880;5.502;2022-08-11T16:15:41;37.50;53.00
13982;DHT22;7065;50.880;5.502;2022-08-11T16:18:32;37.80;53.50
13982;DHT22;7065;50.880;5.502;2022-08-11T16:21:11;38.30;51.40
13982;DHT22;7065;50.880;5.502;2022-08-11T16:23:39;38.00;50.70
13982;DHT22;7065;50.880;5.502;2022-08-11T16:26:07;38.10;50.20
13982;DHT22;7065;50.880;5.502;2022-08-11T16:28:33;38.20;50.40
13982;DHT22;7065;50.880;5.502;2022-08-11T16:31:00;38.80;51.20
13982;DHT22;7065;50.880;5.502;2022-08-11T16:33:28;39.90;50.70
13982;DHT22;7065;50.880;5.502;2022-08-11T16:35:55;39.20;49.40
13982;DHT22;7065;50.880;5.502;2022-08-11T16:38:40;38.40;50.60
13982;DHT22;7065;50.880;5.502;2022-08-11T16:41:13;37.60;50.20
13982;DHT22;7065;50.880;5.502;2022-08-11T16:43:44;38.20;50.80
13982;DHT22;7065;50.880;5.502;2022-08-11T16:46:29;38.50;48.60
13982;DHT22;7065;50.880;5.502;2022-08-11T16:49:30;37.90;48.40
13982;DHT22;7065;50.880;5.502;2022-08-11T16:51:56;37.70;49.00
13982;DHT22;7065;50.880;5.502;2022-08-11T16:54:22;37.30;50.20
13982;DHT22;7065;50.880;5.502;2022-08-11T16:56:50;37.30;48.80
13982;DHT22;7065;50.880;5.502;2022-08-11T16:59:28;37.50;48.80
13982;DHT22;7065;50.880;5.502;2022-08-11T17:01:58;37.00;49.80
13982;DHT22;7065;50.880;5.502;2022-08-11T17:07:21;37.40;49.30
13982;DHT22;7065;50.880;5.502;2022-08-11T17:10:10;37.30;49.40
13982;DHT22;7065;50.880;5.502;2022-08-11T17:12:57;38.00;47.90
13982;DHT22;7065;50.880;5.502;2022-08-11T17:15:40;38.00;47.50
13982;DHT22;7065;50.880;5.502;2022-08-11T17:18:27;37.50;48.20
13982;DHT22;7065;50.880;5.502;2022-08-11T17:21:24;37.00;48.50
13982;DHT22;7065;50.880;5.502;2022-08-11T17:23:58;36.10;49.60
13982;DHT22;7065;50.880;5.502;2022-08-11T17:29:19;34.40;52.50
13982;DHT22;7065;50.880;5.502;2022-08-11T17:31:46;33.40;53.30
13982;DHT22;7065;50.880;5.502;2022-08-11T17:34:32;32.60;54.10
13982;DHT22;7065;50.880;5.502;2022-08-11T17:37:18;32.00;55.50
13982;DHT22;7065;50.880;5.502;2022-08-11T17:39:45;32.00;55.90
13982;DHT22;7065;50.880;5.502;2022-08-11T17:42:12;31.90;56.40
13982;DHT22;7065;50.880;5.502;2022-08-11T17:44:58;32.00;55.10
13982;DHT22;7065;50.880;5.502;2022-08-11T17:47:44;31.90;55.30
13982;DHT22;7065;50.880;5.502;2022-08-11T17:50:29;31.70;58.00
13982;DHT22;7065;50.880;5.502;2022-08-11T17:52:56;31.40;57.80
13982;DHT22;7065;50.880;5.502;2022-08-11T17:55:42;31.30;59.40
13982;DHT22;7065;50.880;5.502;2022-08-11T17:58:27;31.10;58.00
13982;DHT22;7065;50.880;5.502;2022-08-11T18:01:12;30.90;58.40
13982;DHT22;7065;50.880;5.502;2022-08-11T18:03:40;30.60;58.90
13982;DHT22;7065;50.880;5.502;2022-08-11T18:06:09;30.50;58.90
13982;DHT22;7065;50.880;5.502;2022-08-11T18:08:44;30.30;59.60
13982;DHT22;7065;50.880;5.502;2022-08-11T18:11:32;30.30;60.60
13982;DHT22;7065;50.880;5.502;2022-08-11T18:14:18;30.30;59.80
13982;DHT22;7065;50.880;5.502;2022-08-11T18:17:04;30.20;59.30
13982;DHT22;7065;50.880;5.502;2022-08-11T18:19:48;30.00;59.60
13982;DHT22;7065;50.880;5.502;2022-08-11T18:22:36;29.90;59.90
13982;DHT22;7065;50.880;5.502;2022-08-11T18:25:34;29.80;60.90
13982;DHT22;7065;50.880;5.502;2022-08-11T18:28:23;29.70;61.40
13982;DHT22;7065;50.880;5.502;2022-08-11T18:31:12;29.60;61.20
13982;DHT22;7065;50.880;5.502;2022-08-11T18:34:01;29.50;61.30
13982;DHT22;7065;50.880;5.502;2022-08-11T18:36:57;29.40;61.10
13982;DHT22;7065;50.880;5.502;2022-08-11T18:39:48;29.30;61.90
13982;DHT22;7065;50.880;5.502;2022-08-11T18:42:34;29.20;63.00
13982;DHT22;7065;50.880;5.502;2022-08-11T18:45:20;29.10;64.00
13982;DHT22;7065;50.880;5.502;2022-08-11T18:48:09;29.00;65.60
13982;DHT22;7065;50.880;5.502;2022-08-11T18:50:56;28.90;64.50
13982;DHT22;7065;50.880;5.502;2022-08-11T18:53:48;28.70;66.10
13982;DHT22;7065;50.880;5.502;2022-08-11T18:56:34;28.60;67.90
13982;DHT22;7065;50.880;5.502;2022-08-11T18:59:21;28.40;69.10
13982;DHT22;7065;50.880;5.502;2022-08-11T19:02:07;28.20;69.40
13982;DHT22;7065;50.880;5.502;2022-08-11T19:04:53;28.10;68.60
13982;DHT22;7065;50.880;5.502;2022-08-11T19:07:39;27.90;72.00
13982;DHT22;7065;50.880;5.502;2022-08-11T19:10:24;27.60;73.80
13982;DHT22;7065;50.880;5.502;2022-08-11T19:13:09;27.40;73.30
13982;DHT22;7065;50.880;5.502;2022-08-11T19:15:54;27.20;72.90
13982;DHT22;7065;50.880;5.502;2022-08-11T19:18:39;27.00;75.40
13982;DHT22;7065;50.880;5.502;2022-08-11T19:21:26;26.90;78.00
13982;DHT22;7065;50.880;5.502;2022-08-11T19:24:12;26.70;76.90
13982;DHT22;7065;50.880;5.502;2022-08-11T19:26:58;26.40;80.20
13982;DHT22;7065;50.880;5.502;2022-08-11T19:29:43;26.20;80.00
13982;DHT22;7065;50.880;5.502;2022-08-11T19:32:28;25.90;82.20
13982;DHT22;7065;50.880;5.502;2022-08-11T19:35:13;25.70;84.30
13982;DHT22;7065;50.880;5.502;2022-08-11T19:37:59;25.60;83.20
13982;DHT22;7065;50.880;5.502;2022-08-11T19:40:45;25.50;77.70
13982;DHT22;7065;50.880;5.502;2022-08-11T19:43:30;25.60;79.60
13982;DHT22;7065;50.880;5.502;2022-08-11T19:46:18;25.50;78.90
13982;DHT22;7065;50.880;5.502;2022-08-11T19:49:03;25.50;80.50
13982;DHT22;7065;50.880;5.502;2022-08-11T19:51:49;25.40;79.80
13982;DHT22;7065;50.880;5.502;2022-08-11T19:54:34;25.40;80.70
13982;DHT22;7065;50.880;5.502;2022-08-11T19:57:21;25.30;80.60
13982;DHT22;7065;50.880;5.502;2022-08-11T20:00:10;25.30;80.50